Terminal Aerodrome Forecast
Issued by NWS

Home | Current Version | Previous Version | Text Only | Print | Product List | Glossary On
Versions: 1 2 3 4 5 6 7 8 9 10 11 12 13 14 15 16 17 18 19 20 21 22 23 24 25 26 27 28 29 30
000
FTUS43 KPAH 160900 AAB
TAFOWB
TAF AMD
KOWB 160937Z 1610/1706 35010KT P6SM OVC007
      TEMPO 1610/1613 SCT007 OVC012
     FM161300 34007KT P6SM OVC012
     FM161500 02005KT P6SM BKN025
     FM161900 02005KT P6SM SCT030=

USA.gov is the U.S. government's official web portal to all federal, state and local government web resources and services.